createdAt,value
2022-08-04T00:00:12.085Z,24.30
2022-08-04T00:03:04.807Z,24.30
2022-08-04T00:05:41.091Z,24.20
2022-08-04T00:08:20.086Z,24.20
2022-08-04T00:10:53.609Z,24.20
2022-08-04T00:13:26.027Z,24.20
2022-08-04T00:15:54.641Z,24.10
2022-08-04T00:18:29.369Z,24.10
2022-08-04T00:21:01.180Z,24.10
2022-08-04T00:24:12.113Z,24.10
2022-08-04T00:26:20.643Z,24.10
2022-08-04T00:28:48.668Z,24.00
2022-08-04T00:31:16.732Z,24.00
2022-08-04T00:33:46.499Z,24.00
2022-08-04T00:36:14.885Z,23.90
2022-08-04T00:38:43.734Z,23.90
2022-08-04T00:41:36.125Z,24.00
2022-08-04T00:44:31.313Z,23.90
2022-08-04T00:47:12.391Z,23.90
2022-08-04T00:50:08.589Z,23.90
2022-08-04T00:52:47.764Z,23.80
2022-08-04T00:55:42.140Z,23.80
2022-08-04T00:58:14.157Z,23.80
2022-08-04T01:00:47.463Z,23.70
2022-08-04T01:03:36.471Z,23.70
2022-08-04T01:06:11.746Z,23.70
2022-08-04T01:09:03.036Z,23.60
2022-08-04T01:12:15.761Z,23.60
2022-08-04T01:14:57.342Z,23.60
2022-08-04T01:17:36.412Z,23.50
2022-08-04T01:20:07.976Z,23.50
2022-08-04T01:22:34.918Z,23.50
2022-08-04T01:25:33.246Z,23.50
2022-08-04T01:28:22.224Z,23.50
2022-08-04T01:30:56.824Z,23.40
2022-08-04T01:33:27.620Z,23.40
2022-08-04T01:36:03.696Z,23.30
2022-08-04T01:38:34.071Z,23.30
2022-08-04T01:41:06.927Z,23.20
2022-08-04T01:43:36.272Z,23.30
2022-08-04T01:46:05.585Z,23.20
2022-08-04T01:48:37.875Z,23.20
2022-08-04T01:51:06.988Z,23.20
2022-08-04T01:53:43.181Z,23.20
2022-08-04T01:56:11.644Z,23.20
2022-08-04T01:58:40.148Z,23.20
2022-08-04T02:01:09.923Z,23.20
2022-08-04T02:04:20.284Z,23.20
2022-08-04T02:06:47.876Z,23.20
2022-08-04T02:09:55.039Z,23.10
2022-08-04T02:12:38.430Z,23.10
2022-08-04T02:15:18.401Z,23.10
2022-08-04T02:18:05.056Z,23.10
2022-08-04T02:20:39.605Z,23.10
2022-08-04T02:23:09.891Z,23.00
2022-08-04T02:26:00.692Z,23.00
2022-08-04T02:28:50.353Z,23.00
2022-08-04T02:31:29.104Z,23.00
2022-08-04T02:34:13.913Z,23.00
2022-08-04T02:36:42.384Z,23.00
2022-08-04T02:39:11.360Z,23.00
2022-08-04T02:41:42.733Z,23.00
2022-08-04T02:44:10.951Z,23.00
2022-08-04T02:46:39.194Z,23.00
2022-08-04T02:49:10.637Z,23.00
2022-08-04T02:51:41.694Z,23.00
2022-08-04T02:54:08.871Z,23.00
2022-08-04T02:56:38.693Z,23.00
2022-08-04T02:59:11.997Z,23.00
2022-08-04T03:01:57.476Z,23.00
2022-08-04T03:04:51.178Z,23.00
2022-08-04T03:07:30.502Z,23.00
2022-08-04T03:10:00.422Z,23.00
2022-08-04T03:12:58.680Z,22.90
2022-08-04T03:15:57.126Z,22.90
2022-08-04T03:18:45.315Z,22.90
2022-08-04T03:21:40.442Z,22.90
2022-08-04T03:24:20.325Z,22.90
2022-08-04T03:27:05.858Z,22.80
2022-08-04T03:30:03.764Z,22.90
2022-08-04T03:33:07.655Z,22.90
2022-08-04T03:35:49.670Z,22.90
2022-08-04T03:38:41.322Z,22.80
2022-08-04T03:41:51.898Z,22.80
2022-08-04T03:44:32.629Z,22.80
2022-08-04T03:47:11.502Z,22.80
2022-08-04T03:49:50.254Z,22.80
2022-08-04T03:52:42.463Z,22.70
2022-08-04T03:55:29.227Z,22.70
2022-08-04T03:58:34.186Z,22.70
2022-08-04T04:01:19.278Z,22.70
2022-08-04T04:04:01.261Z,22.70
2022-08-04T04:06:40.126Z,22.60
2022-08-04T04:09:53.876Z,22.70
2022-08-04T04:12:50.641Z,22.70
2022-08-04T04:15:50.254Z,22.70
2022-08-04T04:18:38.604Z,22.70
2022-08-04T04:21:08.587Z,22.70
2022-08-04T04:23:54.180Z,22.80
2022-08-04T04:26:36.302Z,22.80
2022-08-04T04:29:31.321Z,22.80
2022-08-04T04:32:24.130Z,22.80
2022-08-04T04:35:02.881Z,22.80
2022-08-04T04:37:49.155Z,22.80
2022-08-04T04:40:44.150Z,22.80
2022-08-04T04:43:11.107Z,22.80
2022-08-04T04:45:59.592Z,22.80
2022-08-04T04:48:51.086Z,22.80
2022-08-04T04:51:29.044Z,22.90
2022-08-04T04:54:17.706Z,22.90
2022-08-04T04:56:50.410Z,22.90
2022-08-04T04:59:22.229Z,22.90
2022-08-04T05:01:52.231Z,23.00
2022-08-04T05:04:48.170Z,23.00
2022-08-04T05:07:17.887Z,23.00
2022-08-04T05:10:13.453Z,23.10
2022-08-04T05:14:32.216Z,23.10
2022-08-04T05:15:43.444Z,23.10
2022-08-04T05:18:16.297Z,23.20
2022-08-04T05:20:48.724Z,23.20
2022-08-04T05:23:28.599Z,23.30
2022-08-04T05:26:02.111Z,23.30
2022-08-04T05:28:38.950Z,23.30
2022-08-04T05:31:30.639Z,23.30
2022-08-04T05:34:03.269Z,23.40
2022-08-04T05:36:41.755Z,23.40
2022-08-04T05:39:14.451Z,23.50
2022-08-04T05:41:45.778Z,23.50
2022-08-04T05:44:20.232Z,23.50
2022-08-04T05:46:56.193Z,23.50
2022-08-04T05:49:29.696Z,23.60
2022-08-04T05:52:01.311Z,23.60
2022-08-04T05:54:30.531Z,23.60
2022-08-04T05:56:58.339Z,23.60
2022-08-04T05:59:26.796Z,23.70
2022-08-04T06:01:57.675Z,23.70
2022-08-04T06:04:43.065Z,23.80
2022-08-04T06:07:13.010Z,23.80
2022-08-04T06:09:41.272Z,23.80
2022-08-04T06:12:19.496Z,23.80
2022-08-04T06:14:49.101Z,23.90
2022-08-04T06:18:35.474Z,23.90
2022-08-04T06:20:18.245Z,24.00
2022-08-04T06:22:49.735Z,24.00
2022-08-04T06:25:22.626Z,24.10
2022-08-04T06:27:50.672Z,24.10
2022-08-04T06:30:21.612Z,24.10
2022-08-04T06:33:03.368Z,24.20
2022-08-04T06:35:32.287Z,24.20
2022-08-04T06:38:01.170Z,24.20
2022-08-04T06:40:31.459Z,24.20
2022-08-04T06:43:05.525Z,24.30
2022-08-04T06:45:35.134Z,24.30
2022-08-04T06:48:04.996Z,24.30
2022-08-04T06:51:24.726Z,24.30
2022-08-04T06:53:21.443Z,24.30
2022-08-04T06:55:49.326Z,24.40
2022-08-04T06:58:17.547Z,24.40
2022-08-04T07:00:46.025Z,24.50
2022-08-04T07:03:13.833Z,24.50
2022-08-04T07:05:41.832Z,24.50
2022-08-04T07:08:11.468Z,24.60
2022-08-04T07:10:39.344Z,24.60
2022-08-04T07:13:07.616Z,24.70
2022-08-04T07:15:36.767Z,24.70
2022-08-04T07:18:05.209Z,24.70
2022-08-04T07:20:35.565Z,24.80
2022-08-04T07:23:07.467Z,24.80
2022-08-04T07:26:11.124Z,24.80
2022-08-04T07:28:29.350Z,24.80
2022-08-04T07:30:58.390Z,24.90
2022-08-04T07:33:26.260Z,24.90
2022-08-04T07:36:10.493Z,24.90
2022-08-04T07:38:48.177Z,24.90
2022-08-04T07:41:35.882Z,24.90
2022-08-04T07:44:04.457Z,25.00
2022-08-04T07:46:31.727Z,25.00
2022-08-04T07:49:01.120Z,25.00
2022-08-04T07:51:28.944Z,25.10
2022-08-04T07:53:57.392Z,25.10
2022-08-04T07:56:28.613Z,25.20
2022-08-04T07:58:56.514Z,25.20
2022-08-04T08:01:24.877Z,25.30
2022-08-04T08:03:54.051Z,25.30
2022-08-04T08:06:32.218Z,25.40
2022-08-04T08:09:13.628Z,25.40
2022-08-04T08:12:38.105Z,25.40
2022-08-04T08:14:31.806Z,25.50
2022-08-04T08:17:00.258Z,25.50
2022-08-04T08:19:27.258Z,25.50
2022-08-04T08:21:59.745Z,25.50
2022-08-04T08:24:31.802Z,25.60
2022-08-04T08:27:00.521Z,25.60
2022-08-04T08:29:29.605Z,25.70
2022-08-04T08:32:01.452Z,25.70
2022-08-04T08:34:33.258Z,25.70
2022-08-04T08:37:21.454Z,25.70
2022-08-04T08:39:51.235Z,25.80
2022-08-04T08:42:49.138Z,25.80
2022-08-04T08:45:34.279Z,25.80
2022-08-04T08:48:49.409Z,25.80
2022-08-04T08:51:42.589Z,25.90
2022-08-04T08:54:42.279Z,25.80
2022-08-04T08:57:42.466Z,25.90
2022-08-04T09:00:58.079Z,26.00
2022-08-04T09:03:52.070Z,26.00
2022-08-04T09:06:42.775Z,26.00
2022-08-04T09:09:46.604Z,26.00
2022-08-04T09:12:31.647Z,26.00
2022-08-04T09:15:05.296Z,26.00
2022-08-04T09:17:38.052Z,26.00
2022-08-04T09:20:25.303Z,26.10
2022-08-04T09:23:22.920Z,26.20
2022-08-04T09:26:09.189Z,26.20
2022-08-04T09:28:54.410Z,26.30
2022-08-04T09:31:51.402Z,26.30
2022-08-04T09:34:32.733Z,26.40
2022-08-04T09:37:15.148Z,26.40
2022-08-04T09:40:07.963Z,26.50
2022-08-04T09:42:57.719Z,26.50
2022-08-04T09:45:57.546Z,26.60
2022-08-04T09:49:11.706Z,26.60
2022-08-04T09:51:58.142Z,26.60
2022-08-04T09:54:39.361Z,26.50
2022-08-04T09:57:08.944Z,26.50
2022-08-04T10:00:02.235Z,26.50
2022-08-04T10:02:42.837Z,26.60
2022-08-04T10:05:14.803Z,26.70
2022-08-04T10:07:59.617Z,26.70
2022-08-04T10:11:06.952Z,26.80
2022-08-04T10:13:47.048Z,26.80
2022-08-04T10:16:43.026Z,26.80
2022-08-04T10:19:28.901Z,26.70
2022-08-04T10:22:28.692Z,26.80
2022-08-04T10:26:03.437Z,26.80
2022-08-04T10:28:03.045Z,27.00
2022-08-04T10:30:34.251Z,27.00
2022-08-04T10:33:24.073Z,27.00
2022-08-04T10:36:11.888Z,27.00
2022-08-04T10:39:00.255Z,27.00
2022-08-04T10:41:27.113Z,27.00
2022-08-04T10:44:33.246Z,27.00
2022-08-04T10:47:16.658Z,27.10
2022-08-04T10:49:56.145Z,27.10
2022-08-04T10:52:29.420Z,27.10
2022-08-04T10:55:18.814Z,27.10
2022-08-04T10:58:06.083Z,27.20
2022-08-04T11:00:36.277Z,27.20
2022-08-04T11:03:09.328Z,27.10
2022-08-04T11:05:53.117Z,27.10
2022-08-04T11:08:21.613Z,27.20
2022-08-04T11:10:59.307Z,27.30
2022-08-04T11:13:46.888Z,27.30
2022-08-04T11:16:21.070Z,27.40
2022-08-04T11:19:10.113Z,27.30
2022-08-04T11:21:43.586Z,27.40
2022-08-04T11:24:21.768Z,27.40
2022-08-04T11:27:09.209Z,27.50
2022-08-04T11:29:50.357Z,27.50
2022-08-04T11:32:23.109Z,27.50
2022-08-04T11:34:54.838Z,27.50
2022-08-04T11:37:44.124Z,27.50
2022-08-04T11:40:24.670Z,27.50
2022-08-04T11:43:04.670Z,27.60
2022-08-04T11:45:37.960Z,27.60
2022-08-04T11:48:11.261Z,27.60
2022-08-04T11:50:53.984Z,27.70
2022-08-04T11:53:24.535Z,27.70
2022-08-04T11:56:07.961Z,27.70
2022-08-04T11:58:37.422Z,27.70
2022-08-04T12:01:09.856Z,27.70
2022-08-04T12:04:18.167Z,27.70
2022-08-04T12:07:30.611Z,27.80
2022-08-04T12:10:41.826Z,27.80
2022-08-04T12:13:32.561Z,27.80
2022-08-04T12:16:05.115Z,27.80
2022-08-04T12:18:40.587Z,27.80
2022-08-04T12:21:33.824Z,27.90
2022-08-04T12:24:18.507Z,27.80
2022-08-04T12:26:56.123Z,27.80
2022-08-04T12:29:25.959Z,27.80
2022-08-04T12:32:00.568Z,27.80
2022-08-04T12:34:35.492Z,27.90
2022-08-04T12:37:23.345Z,27.90
2022-08-04T12:40:29.118Z,28.00
2022-08-04T12:43:20.411Z,28.10
2022-08-04T12:45:51.717Z,28.00
2022-08-04T12:48:21.563Z,28.00
2022-08-04T12:50:54.060Z,28.10
2022-08-04T12:53:32.090Z,28.10
2022-08-04T12:56:01.674Z,28.10
2022-08-04T12:58:42.285Z,28.10
2022-08-04T13:02:06.929Z,28.20
2022-08-04T13:04:20.181Z,28.30
2022-08-04T13:06:58.261Z,28.20
2022-08-04T13:09:31.745Z,28.20
2022-08-04T13:12:02.730Z,28.30
2022-08-04T13:14:38.390Z,28.30
2022-08-04T13:17:06.572Z,28.30
2022-08-04T13:19:41.354Z,28.20
2022-08-04T13:22:09.308Z,28.20
2022-08-04T13:24:56.999Z,28.30
2022-08-04T13:27:26.755Z,28.40
2022-08-04T13:29:58.111Z,28.40
2022-08-04T13:32:30.193Z,28.40
2022-08-04T13:34:59.986Z,28.40
2022-08-04T13:37:35.043Z,28.40
2022-08-04T13:40:14.152Z,28.40
2022-08-04T13:42:46.775Z,28.50
2022-08-04T13:45:14.849Z,28.50
2022-08-04T13:47:43.397Z,28.60
2022-08-04T13:50:27.198Z,28.60
2022-08-04T13:52:55.604Z,28.60
2022-08-04T13:55:35.836Z,28.60
2022-08-04T13:58:09.459Z,28.60
2022-08-04T14:00:58.819Z,28.50
2022-08-04T14:03:53.543Z,28.50
2022-08-04T14:06:27.949Z,28.60
2022-08-04T14:08:57.509Z,28.60
2022-08-04T14:12:06.841Z,28.60
2022-08-04T14:14:31.809Z,28.60
2022-08-04T14:17:19.982Z,28.60
2022-08-04T14:19:50.229Z,28.60
2022-08-04T14:22:26.036Z,28.60
2022-08-04T14:25:01.273Z,28.70
2022-08-04T14:27:30.448Z,28.70
2022-08-04T14:29:57.599Z,28.80
2022-08-04T14:32:26.451Z,28.80
2022-08-04T14:34:53.802Z,28.80
2022-08-04T14:37:22.658Z,28.80
2022-08-04T14:40:18.996Z,28.90
2022-08-04T14:42:41.640Z,28.90
2022-08-04T14:45:09.112Z,28.90
2022-08-04T14:47:40.703Z,28.90
2022-08-04T14:50:09.872Z,28.90
2022-08-04T14:52:38.042Z,28.90
2022-08-04T14:55:24.893Z,28.90
2022-08-04T14:58:37.973Z,29.00
2022-08-04T15:00:39.611Z,29.00
2022-08-04T15:03:08.991Z,29.00
2022-08-04T15:06:01.731Z,28.90
2022-08-04T15:08:31.258Z,28.90
2022-08-04T15:11:02.432Z,28.80
2022-08-04T15:13:33.512Z,28.80
2022-08-04T15:16:07.087Z,28.80
2022-08-04T15:18:36.757Z,28.70
2022-08-04T15:21:04.855Z,28.70
2022-08-04T15:23:38.326Z,28.60
2022-08-04T15:26:10.473Z,28.60
2022-08-04T15:28:41.170Z,28.60
2022-08-04T15:32:03.438Z,28.60
2022-08-04T15:33:57.341Z,28.60
2022-08-04T15:36:57.883Z,28.60
2022-08-04T15:39:33.738Z,28.60
2022-08-04T15:42:30.991Z,28.60
2022-08-04T15:45:11.180Z,28.60
2022-08-04T15:47:38.153Z,28.60
2022-08-04T15:50:11.867Z,28.60
2022-08-04T15:53:01.245Z,28.60
2022-08-04T15:55:39.061Z,28.60
2022-08-04T15:58:08.720Z,28.60
2022-08-04T16:00:50.916Z,28.50
2022-08-04T16:04:00.563Z,28.50
2022-08-04T16:06:22.999Z,28.50
2022-08-04T16:08:58.072Z,28.50
2022-08-04T16:11:31.463Z,28.50
2022-08-04T16:13:59.111Z,28.50
2022-08-04T16:16:42.336Z,28.40
2022-08-04T16:19:47.649Z,28.40
2022-08-04T16:22:34.070Z,28.40
2022-08-04T16:25:01.483Z,28.40
2022-08-04T16:27:40.516Z,28.40
2022-08-04T16:30:13.965Z,28.40
2022-08-04T16:32:46.640Z,28.40
2022-08-04T16:35:19.465Z,28.40
2022-08-04T16:37:46.422Z,28.40
2022-08-04T16:40:37.073Z,28.40
2022-08-04T16:43:08.123Z,28.40
2022-08-04T16:45:56.363Z,28.40
2022-08-04T16:48:32.165Z,28.40
2022-08-04T16:51:03.309Z,28.40
2022-08-04T16:54:03.929Z,28.40
2022-08-04T16:56:32.996Z,28.40
2022-08-04T16:59:11.834Z,28.40
2022-08-04T17:01:49.246Z,28.40
2022-08-04T17:04:16.893Z,28.40
2022-08-04T17:06:49.366Z,28.30
2022-08-04T17:09:18.283Z,28.30
2022-08-04T17:11:47.211Z,28.30
2022-08-04T17:14:14.160Z,28.30
2022-08-04T17:16:42.608Z,28.30
2022-08-04T17:19:23.727Z,28.30
2022-08-04T17:22:04.761Z,28.30
2022-08-04T17:24:38.588Z,28.20
2022-08-04T17:28:09.005Z,28.20
2022-08-04T17:29:53.295Z,28.10
2022-08-04T17:32:22.026Z,28.10
2022-08-04T17:34:51.445Z,28.00
2022-08-04T17:37:39.284Z,28.00
2022-08-04T17:40:14.393Z,28.00
2022-08-04T17:42:50.788Z,28.00
2022-08-04T17:45:50.838Z,27.90
2022-08-04T17:48:09.563Z,27.90
2022-08-04T17:50:43.139Z,27.90
2022-08-04T17:53:12.139Z,27.90
2022-08-04T17:55:41.437Z,27.90
2022-08-04T17:58:21.912Z,27.90
2022-08-04T18:01:24.678Z,27.80
2022-08-04T18:03:51.712Z,27.80
2022-08-04T18:06:21.891Z,27.70
2022-08-04T18:08:58.154Z,27.70
2022-08-04T18:11:29.507Z,27.70
2022-08-04T18:14:08.742Z,27.60
2022-08-04T18:16:45.998Z,27.60
2022-08-04T18:19:15.291Z,27.60
2022-08-04T18:21:46.717Z,27.60
2022-08-04T18:24:34.017Z,27.50
2022-08-04T18:27:16.637Z,27.50
2022-08-04T18:30:15.450Z,27.40
2022-08-04T18:32:32.974Z,27.40
2022-08-04T18:35:04.977Z,27.30
2022-08-04T18:38:06.781Z,27.20
2022-08-04T18:40:30.134Z,27.20
2022-08-04T18:43:03.643Z,27.10
2022-08-04T18:45:35.305Z,27.10
2022-08-04T18:48:04.055Z,27.00
2022-08-04T18:51:09.714Z,27.00
2022-08-04T18:53:35.081Z,26.90
2022-08-04T18:56:03.736Z,26.90
2022-08-04T18:58:33.058Z,26.90
2022-08-04T19:01:01.324Z,26.80
2022-08-04T19:03:30.795Z,26.80
2022-08-04T19:06:01.505Z,26.80
2022-08-04T19:08:33.280Z,26.70
2022-08-04T19:11:28.675Z,26.70
2022-08-04T19:13:58.219Z,26.60
2022-08-04T19:16:27.346Z,26.60
2022-08-04T19:18:55.913Z,26.60
2022-08-04T19:21:58.779Z,26.60
2022-08-04T19:24:32.409Z,26.50
2022-08-04T19:26:59.530Z,26.50
2022-08-04T19:29:37.942Z,26.50
2022-08-04T19:32:14.513Z,26.40
2022-08-04T19:34:46.407Z,26.40
2022-08-04T19:37:57.031Z,26.40
2022-08-04T19:40:08.016Z,26.40
2022-08-04T19:42:36.392Z,26.40
2022-08-04T19:45:04.385Z,26.30
2022-08-04T19:48:11.216Z,26.30
2022-08-04T19:50:18.301Z,26.30
2022-08-04T19:52:51.461Z,26.20
2022-08-04T19:55:22.678Z,26.20
2022-08-04T19:57:50.726Z,26.20
2022-08-04T20:00:33.319Z,26.20
2022-08-04T20:03:02.621Z,26.20
2022-08-04T20:05:52.759Z,26.10
2022-08-04T20:08:19.325Z,26.10
2022-08-04T20:10:47.034Z,26.10
2022-08-04T20:13:19.674Z,26.00
2022-08-04T20:15:57.260Z,26.00
2022-08-04T20:18:36.040Z,25.90
2022-08-04T20:21:19.435Z,25.90
2022-08-04T20:23:52.255Z,25.80
2022-08-04T20:26:19.418Z,25.80
2022-08-04T20:28:51.799Z,25.80
2022-08-04T20:31:19.826Z,25.80
2022-08-04T20:33:49.295Z,25.80
2022-08-04T20:36:21.240Z,25.70
2022-08-04T20:38:52.793Z,25.70
2022-08-04T20:41:20.739Z,25.70
2022-08-04T20:43:49.978Z,25.70
2022-08-04T20:46:28.486Z,25.60
2022-08-04T20:48:57.519Z,25.60
2022-08-04T20:51:31.590Z,25.60
2022-08-04T20:54:00.334Z,25.60
2022-08-04T20:56:31.346Z,25.60
2022-08-04T20:58:59.914Z,25.60
2022-08-04T21:01:30.032Z,25.50
2022-08-04T21:07:07.170Z,25.50
2022-08-04T21:09:38.032Z,25.50
2022-08-04T21:12:10.448Z,25.50
2022-08-04T21:14:37.406Z,25.50
2022-08-04T21:17:07.218Z,25.50
2022-08-04T21:19:36.664Z,25.40
2022-08-04T21:22:07.006Z,25.40
2022-08-04T21:24:37.966Z,25.40
2022-08-04T21:27:06.409Z,25.40
2022-08-04T21:29:36.876Z,25.40
2022-08-04T21:32:07.937Z,25.40
2022-08-04T21:34:39.140Z,25.30
2022-08-04T21:39:59.234Z,25.30
2022-08-04T21:42:28.769Z,25.30
2022-08-04T21:45:13.528Z,25.30
2022-08-04T21:47:46.663Z,25.30
2022-08-04T21:50:20.179Z,25.30
2022-08-04T21:52:48.306Z,25.20
2022-08-04T21:55:16.018Z,25.20
2022-08-04T21:57:42.881Z,25.20
2022-08-04T22:00:18.242Z,25.10
2022-08-04T22:02:45.795Z,25.10
2022-08-04T22:05:15.923Z,25.10
2022-08-04T22:10:32.260Z,25.10
2022-08-04T22:13:06.880Z,25.00
2022-08-04T22:16:04.996Z,24.90
2022-08-04T22:18:24.397Z,24.90
2022-08-04T22:20:54.906Z,24.90
2022-08-04T22:23:24.189Z,24.80
2022-08-04T22:25:53.669Z,24.80
2022-08-04T22:28:22.394Z,24.80
2022-08-04T22:30:52.402Z,24.80
2022-08-04T22:33:19.257Z,24.70
2022-08-04T22:35:49.994Z,24.70
2022-08-04T22:38:21.311Z,24.70
2022-08-04T22:41:01.206Z,24.70
2022-08-04T22:43:31.750Z,24.60
2022-08-04T22:46:04.008Z,24.60
2022-08-04T22:48:33.799Z,24.60
2022-08-04T22:51:02.612Z,24.50
2022-08-04T22:53:29.723Z,24.50
2022-08-04T22:56:09.398Z,24.50
2022-08-04T22:58:45.575Z,24.40
2022-08-04T23:01:18.353Z,24.40
2022-08-04T23:03:50.998Z,24.40
2022-08-04T23:06:24.366Z,24.40
2022-08-04T23:08:52.199Z,24.30
2022-08-04T23:11:19.092Z,24.30
2022-08-04T23:13:47.349Z,24.30
2022-08-04T23:16:17.093Z,24.30
2022-08-04T23:18:48.170Z,24.20
2022-08-04T23:21:16.656Z,24.20
2022-08-04T23:23:47.705Z,24.20
2022-08-04T23:26:27.896Z,24.10
2022-08-04T23:28:56.221Z,24.10
2022-08-04T23:31:24.280Z,24.10
2022-08-04T23:33:52.362Z,24.10
2022-08-04T23:36:26.312Z,24.10
2022-08-04T23:39:00.325Z,24.10
2022-08-04T23:41:55.431Z,24.10
2022-08-04T23:44:17.561Z,24.10
2022-08-04T23:46:53.432Z,24.00
2022-08-04T23:49:22.482Z,24.00
2022-08-04T23:51:49.782Z,23.90
2022-08-04T23:54:16.726Z,23.90
2022-08-04T23:56:52.657Z,23.90
2022-08-04T23:59:49.016Z,23.80
